Airfield :
LOGIN :

Register | Disclaimer

   EN    FR    IT 

 










Legend :    VFR   Marginal VFR   IFR   Intensive IFR   Very Intensive IFR
Visi :
Ceiling :
>= 8 km
>= 3000ft
5 to 8 km
1000 to 3000 ft
1500m to 5 km
500 to 1000 ft
800 to 1500m
200 to 500 ft
< 800m
< 200 ft
Symbols :   Thunderstorms  Fog  Heavy snow  Heavy precipitations  Wind > 20 kt
SIGMETs :     Misc.  Thunderstorms  Icing  Turbulence  Mountain Waves  Volcanic Ashes






- Airport Elevation : 741 ft
- IATA code : JKG


ESGJ - Jönköping

CURRENT METAR :
  • 211250Z 10005KT 9999 BKN009 07/06 Q1018

EXPIRED METARs :
  • 211220Z 11006KT 9999 BKN008 07/06 Q1018
  • 211150Z 11006KT 070V140 9999 -DZ SCT004 BKN007 07/06 Q1018
  • 211120Z 11006KT 080V150 5000 -DZ BKN004 07/07 Q1018
  • 211050Z 12008KT 5000 -DZ BKN005 07/07 Q1019
  • 211020Z 13010KT 9999 OVC008 08/07 Q1019

TAF TAF ESGJ
Valid from the 21 at 12:00 until the 21 at 21:00 UTC


211130Z 2112/2121 12008KT 9999 OVC008
TEMPO 2112/2121 2000 DZ BR BKN003



MET'MAP, your aeronautical weather chart ! - Copyright ORBIFLY December 2007 - Disclaimer

ORBIFLY MET'MAP TEAM :

Programming & Development : Alexandra Zaïnal
Concept & Development : Baudouin d'Aumeries
Co-Development & Prog : Marc-Olivier Méhu
Technical & hardware support : Manuel Goepfert

Contact : metmap@orbifly.com




SOURCES & CREDITS :

   NOAA